Pagina principale
METAR-TAF:

METAR-TAF

Aeroporti :

Mykolaïv, Ucraina

latitudine: 47-03-29N, longitudine: 031-55-15E, altezza: 56 m

Osservazione

Il bollettino è stato emesso 6 ore e 7 minuti fa, alle 14:00 UTC
Vento 2 kt da direzioni variabili
Temperature 30°C
Umidità 29%
Pressione 1019 hPa
Visibilità 10 km o più
nessuna nube inferiore a 1500 m e nessun cumulonembo

METAR: UKON 101400Z VRB01MPS CAVOK 30/10 Q1019 R22/090075 NOSIG

Ora: 23:07 (20:07 UTC)

Previsione

Il bollettino è stato emesso 9 ore e 5 minuti fa, alle 11:02 UTC
Previsione valida dal 10 alle 12 UTC al 10 alle 21 UTC
Vento 6 kt da sud-ovest
Visibilità 10 km o più
Nubi sparse ad un'altezza di 3000 ft, Cumulonembo.
Temporaneamente
dal 10 alle 12 UTC al 10 alle 18 UTC
Vento 10 kt da sud con raffiche fino a 21 kt

TAF: UKON 101102Z 1012/1021 22003MPS 9999 SCT030CB TX30/1013Z TN21/1021Z TEMPO 1012/1018 18005G11MPS

Osservazioni e previsioni meteorologiche di più di 4000 aeroporti (messaggi METAR e TAF).

Le stazioni disponibili sono rappresentate dai dischi gialli e rossi sulla carta.

Puntare il mouse per vedere il nome della stazione.

Clicca sopra per visualizzare le osservazioni e previsioni meteorologiche.

Per cambiare la mappa : fare clic sui pulsanti verdi con una croce nera per ingrandire, il pulsante verde con un trattino per diminuire, o sulla freccia verde per le mappe adiacenti.


METAR-TAF: